Time;durP1;ratioP1;P1;durP2;ratioP2;P2;SDS_P1;SDS_P2;PMS_P1;PMS_P2;Temp;Humidity;BMP_temperature;BMP_pressure;BME280_temperature;BME280_humidity;BME280_pressure;Samples;Min_cycle;Max_cycle;Signal;HPM_P1;HPM_P2
2022/06/14 00:00:54;;;;;;;11.50;3.40;;;12.20;99.90;;;;;;5091683;28;20044;-74
2022/06/14 00:03:29;;;;;;;11.15;2.90;;;12.10;99.90;;;;;;5092128;28;20049;-74
2022/06/14 00:05:57;;;;;;;17.83;3.20;;;12.10;99.90;;;;;;5092782;28;20371;-74
2022/06/14 00:08:27;;;;;;;11.32;3.92;;;12.00;99.90;;;;;;5093690;28;20088;-74
2022/06/14 00:10:54;;;;;;;18.88;3.78;;;12.00;99.90;;;;;;5092233;28;20123;-74
2022/06/14 00:13:21;;;;;;;9.98;3.55;;;12.00;99.90;;;;;;5093337;28;20047;-75
2022/06/14 00:15:47;;;;;;;9.55;3.25;;;12.00;99.90;;;;;;5091988;28;20040;-74
2022/06/14 00:18:14;;;;;;;12.43;3.75;;;12.00;99.90;;;;;;5092046;28;20036;-74
2022/06/14 00:20:42;;;;;;;10.20;3.30;;;12.00;99.90;;;;;;5091935;28;20059;-74
2022/06/14 00:23:08;;;;;;;11.35;3.67;;;12.00;99.90;;;;;;5093270;28;20036;-74
2022/06/14 00:25:36;;;;;;;11.45;3.25;;;12.00;99.90;;;;;;5092184;28;20390;-74
2022/06/14 00:28:03;;;;;;;15.93;3.60;;;12.00;99.90;;;;;;5075316;28;20040;-73
2022/06/14 00:30:32;;;;;;;11.75;3.17;;;12.00;99.90;;;;;;5091779;28;20052;-74
2022/06/14 00:32:58;;;;;;;8.90;3.42;;;12.00;99.90;;;;;;5091935;28;20044;-73
2022/06/14 00:35:24;;;;;;;11.40;4.35;;;12.00;99.90;;;;;;5092821;28;20386;-74
2022/06/14 00:37:50;;;;;;;10.88;4.38;;;11.90;99.90;;;;;;5091682;28;20036;-74
2022/06/14 00:40:18;;;;;;;11.88;3.88;;;11.90;99.90;;;;;;5091280;28;20402;-74
2022/06/14 00:42:44;;;;;;;11.32;3.75;;;12.00;99.90;;;;;;5091719;28;20101;-74
2022/06/14 00:45:12;;;;;;;12.57;4.13;;;12.00;99.90;;;;;;5091492;28;20502;-74
2022/06/14 00:47:52;;;;;;;8.63;3.60;;;11.90;99.90;;;;;;5091425;28;20047;-74
2022/06/14 00:50:22;;;;;;;14.48;3.92;;;11.90;99.90;;;;;;5092511;28;20066;-74
2022/06/14 00:53:00;;;;;;;9.80;4.18;;;11.90;99.90;;;;;;5091502;28;20036;-74
2022/06/14 00:55:33;;;;;;;10.68;4.75;;;11.90;99.90;;;;;;5092552;28;20505;-74
2022/06/14 00:58:10;;;;;;;10.02;3.63;;;11.90;99.90;;;;;;5091417;28;20067;-74
2022/06/14 01:00:46;;;;;;;13.48;3.92;;;11.90;99.90;;;;;;5090978;28;20527;-74
2022/06/14 01:03:18;;;;;;;13.38;4.20;;;11.90;99.90;;;;;;5091076;28;20048;-74
2022/06/14 01:06:07;;;;;;;8.57;4.15;;;11.90;99.90;;;;;;5091188;28;20114;-75
2022/06/14 01:08:52;;;;;;;8.75;3.35;;;11.90;99.90;;;;;;5091140;28;20044;-74
2022/06/14 01:11:29;;;;;;;8.20;3.85;;;11.90;99.90;;;;;;5090738;28;20040;-74
2022/06/14 01:13:54;;;;;;;19.33;4.15;;;11.90;99.90;;;;;;5091021;28;20409;-73
2022/06/14 01:16:20;;;;;;;9.05;3.55;;;11.90;99.90;;;;;;5090924;28;20051;-74
2022/06/14 01:18:47;;;;;;;12.85;3.33;;;11.90;99.90;;;;;;5092188;28;20032;-75
2022/06/14 01:21:12;;;;;;;9.25;3.20;;;11.90;99.90;;;;;;5091922;28;20044;-75
2022/06/14 01:23:38;;;;;;;9.20;3.47;;;12.00;99.90;;;;;;5090946;28;20043;-74
2022/06/14 01:26:19;;;;;;;15.15;3.80;;;12.00;99.90;;;;;;5090807;28;20048;-74
2022/06/14 01:28:48;;;;;;;10.95;3.80;;;12.00;99.90;;;;;;5090791;28;20050;-75
2022/06/14 01:31:16;;;;;;;13.40;3.40;;;12.00;99.90;;;;;;5090690;28;20040;-74
2022/06/14 01:33:45;;;;;;;7.97;3.47;;;12.00;99.90;;;;;;5091031;28;20090;-73
2022/06/14 01:36:20;;;;;;;13.82;4.50;;;12.00;99.90;;;;;;5091906;28;20040;-75
2022/06/14 01:38:46;;;;;;;9.30;3.63;;;12.00;99.90;;;;;;5090663;28;20093;-74
2022/06/14 01:41:40;;;;;;;12.27;3.67;;;11.90;99.90;;;;;;5090358;28;20032;-74
2022/06/14 01:44:35;;;;;;;10.93;4.18;;;11.90;99.90;;;;;;5091965;28;20032;-74
2022/06/14 01:47:25;;;;;;;10.48;4.60;;;11.80;99.90;;;;;;5090892;28;20538;-73
2022/06/14 01:53:17;;;;;;;15.27;4.03;;;11.80;99.90;;;;;;5091796;28;20405;-74
2022/06/14 01:56:03;;;;;;;11.95;4.43;;;11.70;99.90;;;;;;5090700;28;20075;-74
2022/06/14 01:58:47;;;;;;;12.00;3.85;;;11.70;99.90;;;;;;5091983;28;20036;-73
2022/06/14 02:01:23;;;;;;;;;;;11.70;99.90;;;;;;5090870;28;20046;-74
2022/06/14 02:07:01;;;;;;;12.15;4.03;;;11.60;99.90;;;;;;5090404;28;20048;-73
2022/06/14 02:09:41;;;;;;;13.35;3.63;;;11.60;99.90;;;;;;5091689;28;20501;-74
2022/06/14 02:12:11;;;;;;;10.88;3.88;;;11.60;99.90;;;;;;5090216;28;20129;-74
2022/06/14 02:14:42;;;;;;;13.18;4.90;;;11.60;99.90;;;;;;5091886;28;20413;-74
2022/06/14 02:17:17;;;;;;;15.07;4.97;;;11.60;99.90;;;;;;5090290;28;20052;-75
2022/06/14 02:19:48;;;;;;;13.23;4.38;;;11.50;99.90;;;;;;5073505;28;20040;-74
2022/06/14 02:22:21;;;;;;;9.90;3.72;;;11.50;99.90;;;;;;5090882;28;20044;-74
2022/06/14 02:24:51;;;;;;;10.77;3.83;;;11.50;99.90;;;;;;5095583;28;20104;-74
2022/06/14 02:27:25;;;;;;;8.48;3.75;;;11.50;99.90;;;;;;5095511;28;20482;-74
2022/06/14 02:30:15;;;;;;;13.57;3.45;;;11.50;99.90;;;;;;5094158;28;20417;-74
2022/06/14 02:33:05;;;;;;;13.02;4.55;;;11.50;99.90;;;;;;5093342;28;20139;-74
2022/06/14 02:35:57;;;;;;;11.82;4.03;;;11.50;99.90;;;;;;5094030;28;20039;-74
2022/06/14 02:38:47;;;;;;;10.38;4.00;;;11.40;99.90;;;;;;5094037;28;20044;-74
2022/06/14 02:41:21;;;;;;;9.00;3.55;;;11.40;99.90;;;;;;5093512;28;20089;-74
2022/06/14 02:43:50;;;;;;;9.23;4.05;;;11.40;99.90;;;;;;5093904;28;20040;-74
2022/06/14 02:46:38;;;;;;;11.85;3.65;;;11.40;99.90;;;;;;5093859;28;20040;-73
2022/06/14 02:49:12;;;;;;;10.90;4.30;;;11.30;99.90;;;;;;5095219;28;20040;-74
2022/06/14 02:51:50;;;;;;;13.77;4.00;;;11.30;99.90;;;;;;5093364;28;20039;-74
2022/06/14 02:54:34;;;;;;;11.18;4.43;;;11.30;99.90;;;;;;5093819;28;20071;-74
2022/06/14 02:57:04;;;;;;;9.07;4.10;;;11.30;99.90;;;;;;5093578;28;20413;-74
2022/06/14 02:59:39;;;;;;;10.15;3.90;;;11.20;99.90;;;;;;5095013;28;20047;-74
2022/06/14 03:02:14;;;;;;;11.80;5.22;;;11.30;99.90;;;;;;5094631;28;20097;-74
2022/06/14 03:04:50;;;;;;;14.20;5.05;;;11.20;99.90;;;;;;5093851;28;20119;-74
2022/06/14 03:07:27;;;;;;;15.57;4.90;;;11.30;99.90;;;;;;5093776;28;20040;-74
2022/06/14 03:09:53;;;;;;;12.40;4.80;;;11.30;99.90;;;;;;5093363;28;20576;-75
2022/06/14 03:12:42;;;;;;;11.57;4.32;;;11.20;99.90;;;;;;5094327;28;20051;-73
2022/06/14 03:15:10;;;;;;;15.70;5.35;;;11.20;99.90;;;;;;5093311;28;20047;-75
2022/06/14 03:17:52;;;;;;;14.30;4.57;;;11.20;99.90;;;;;;5093218;28;20043;-74
2022/06/14 03:20:26;;;;;;;10.20;4.65;;;11.20;99.90;;;;;;5094240;28;20393;-74
2022/06/14 03:23:17;;;;;;;10.38;3.97;;;11.30;99.90;;;;;;5093102;28;20185;-74
2022/06/14 03:25:53;;;;;;;8.10;4.85;;;11.20;99.90;;;;;;5042311;28;20056;-73
2022/06/14 03:28:24;;;;;;;8.98;5.32;;;11.20;99.90;;;;;;5093110;28;20055;-73
2022/06/14 03:31:16;;;;;;;13.65;4.60;;;11.20;99.90;;;;;;5076184;28;20040;-74
2022/06/14 03:34:08;;;;;;;6.88;4.05;;;11.20;99.90;;;;;;5054600;28;20054;-73
2022/06/14 03:36:34;;;;;;;9.80;5.13;;;11.30;99.90;;;;;;5094082;28;20083;-74
2022/06/14 03:39:15;;;;;;;16.77;5.40;;;11.30;99.90;;;;;;5092888;28;20078;-74
2022/06/14 03:41:43;;;;;;;18.70;5.25;;;11.30;99.90;;;;;;5092331;28;20036;-74
2022/06/14 03:44:11;;;;;;;9.10;3.90;;;11.30;99.90;;;;;;5093032;28;20058;-73
2022/06/14 03:47:08;;;;;;;9.23;3.95;;;11.30;99.90;;;;;;5094141;28;20044;-73
2022/06/14 03:49:35;;;;;;;10.85;4.47;;;11.30;99.90;;;;;;5092935;28;20043;-74
2022/06/14 03:52:14;;;;;;;9.57;4.43;;;11.40;99.90;;;;;;5075289;28;20086;-73
2022/06/14 03:54:59;;;;;;;10.15;4.75;;;11.40;99.90;;;;;;5092501;28;20132;-73
2022/06/14 03:57:35;;;;;;;12.63;4.10;;;11.40;99.90;;;;;;5092782;28;20383;-73
2022/06/14 04:00:07;;;;;;;12.95;4.10;;;11.40;99.90;;;;;;5093466;28;20040;-74
2022/06/14 04:02:54;;;;;;;13.40;4.28;;;11.50;99.90;;;;;;5093437;28;20051;-74
2022/06/14 04:05:25;;;;;;;12.27;4.15;;;11.40;99.90;;;;;;5092408;28;20411;-73
2022/06/14 04:08:20;;;;;;;11.48;4.97;;;11.40;99.90;;;;;;5092532;28;20458;-73
2022/06/14 04:10:56;;;;;;;10.90;4.53;;;11.50;99.90;;;;;;5078743;28;20112;-73
2022/06/14 04:13:39;;;;;;;12.52;4.68;;;11.50;99.90;;;;;;5092405;28;20044;-73
2022/06/14 04:16:14;;;;;;;11.10;4.75;;;11.50;99.90;;;;;;5093337;28;20044;-73
2022/06/14 04:18:51;;;;;;;11.95;4.80;;;11.50;99.90;;;;;;5092133;28;20089;-73
2022/06/14 04:21:47;;;;;;;12.48;4.50;;;11.50;99.90;;;;;;5091692;28;20032;-74
2022/06/14 04:24:32;;;;;;;12.00;4.85;;;11.50;99.90;;;;;;5091963;28;20047;-73
2022/06/14 04:27:18;;;;;;;10.50;3.75;;;11.60;99.90;;;;;;5093287;28;20498;-73
2022/06/14 04:30:14;;;;;;;10.43;4.68;;;11.60;99.90;;;;;;5092127;28;20047;-73
2022/06/14 04:32:48;;;;;;;9.20;4.30;;;11.70;99.90;;;;;;5093096;28;20124;-73
2022/06/14 04:35:28;;;;;;;9.10;4.65;;;11.70;99.90;;;;;;5091718;28;20043;-73
2022/06/14 04:38:14;;;;;;;10.13;4.10;;;11.80;99.90;;;;;;5092896;28;20043;-74
2022/06/14 04:41:09;;;;;;;10.93;4.43;;;12.00;99.90;;;;;;5091351;28;20047;-74
2022/06/14 04:43:40;;;;;;;15.45;5.10;;;12.00;99.90;;;;;;5081900;28;20047;-75
2022/06/14 04:46:11;;;;;;;12.68;4.15;;;12.10;99.90;;;;;;5092454;28;20119;-73
2022/06/14 04:48:43;;;;;;;9.23;3.92;;;12.30;99.90;;;;;;5093042;28;20047;-73
2022/06/14 04:51:18;;;;;;;10.05;4.20;;;12.50;99.90;;;;;;5092528;28;20036;-73
2022/06/14 04:53:50;;;;;;;10.52;3.90;;;12.80;99.90;;;;;;5091377;28;20493;-73
2022/06/14 04:56:24;;;;;;;11.50;4.25;;;12.90;99.90;;;;;;5091284;28;20044;-73
2022/06/14 04:58:56;;;;;;;12.82;4.88;;;13.20;99.90;;;;;;5092588;28;20043;-73
2022/06/14 05:01:35;;;;;;;8.18;4.38;;;13.40;99.90;;;;;;5090783;28;20042;-74
2022/06/14 05:04:11;;;;;;;7.25;3.70;;;13.60;99.90;;;;;;5092817;28;20054;-73
2022/06/14 05:06:45;;;;;;;13.25;3.97;;;13.90;99.90;;;;;;5091386;28;20115;-73
2022/06/14 05:09:22;;;;;;;11.43;4.28;;;14.10;99.90;;;;;;5091153;28;20505;-73
2022/06/14 05:12:15;;;;;;;7.57;3.40;;;14.00;99.90;;;;;;5092157;28;20127;-73
2022/06/14 05:15:02;;;;;;;13.43;3.75;;;13.90;99.90;;;;;;5091376;28;20047;-73
2022/06/14 05:17:44;;;;;;;6.07;2.80;;;14.00;99.90;;;;;;5091040;28;20054;-73
2022/06/14 05:20:38;;;;;;;12.95;3.47;;;14.10;99.90;;;;;;5092193;28;20044;-73
2022/06/14 05:23:35;;;;;;;6.72;2.63;;;14.30;99.90;;;;;;5077966;28;20044;-73
2022/06/14 05:26:16;;;;;;;10.10;3.63;;;14.30;99.90;;;;;;5091353;28;20047;-74
2022/06/14 05:29:10;;;;;;;10.38;3.53;;;14.30;99.90;;;;;;5092403;28;20046;-73
2022/06/14 05:31:45;;;;;;;5.47;3.17;;;14.40;99.90;;;;;;5090496;28;20040;-73
2022/06/14 05:34:25;;;;;;;8.38;2.92;;;14.50;99.90;;;;;;5091903;28;20477;-73
2022/06/14 05:37:07;;;;;;;13.82;3.58;;;14.60;99.90;;;;;;5092224;28;20040;-74
2022/06/14 05:39:41;;;;;;;11.77;3.60;;;14.70;99.90;;;;;;5092081;28;20047;-75
2022/06/14 05:42:20;;;;;;;5.45;2.80;;;15.00;99.90;;;;;;5091653;28;20068;-73
2022/06/14 05:44:49;;;;;;;6.80;2.55;;;15.20;99.90;;;;;;5090954;28;20533;-74
2022/06/14 05:47:21;;;;;;;9.55;2.88;;;15.20;99.90;;;;;;5090609;28;20089;-74
2022/06/14 05:49:55;;;;;;;15.95;3.03;;;15.50;99.90;;;;;;5092227;28;20044;-73
2022/06/14 05:52:40;;;;;;;7.25;2.35;;;15.50;99.90;;;;;;5090678;28;20105;-73
2022/06/14 05:55:19;;;;;;;9.18;2.40;;;15.40;99.90;;;;;;5090841;28;20076;-74
2022/06/14 05:57:54;;;;;;;6.57;2.88;;;15.50;99.90;;;;;;5093647;28;20379;-73
2022/06/14 06:00:30;;;;;;;10.20;2.55;;;15.50;99.90;;;;;;5094479;28;20036;-73
2022/06/14 06:03:10;;;;;;;7.07;3.00;;;15.60;99.90;;;;;;5095605;28;20517;-74
2022/06/14 06:05:39;;;;;;;12.25;3.90;;;15.70;99.90;;;;;;5094923;28;20152;-74
2022/06/14 06:08:24;;;;;;;9.50;2.53;;;15.70;99.90;;;;;;5094775;28;20541;-73
2022/06/14 06:10:55;;;;;;;9.35;2.42;;;15.60;99.90;;;;;;5094476;28;20043;-72
2022/06/14 06:13:31;;;;;;;7.93;2.50;;;15.70;99.90;;;;;;5095698;28;20529;-72
2022/06/14 06:16:10;;;;;;;9.63;2.95;;;16.00;99.90;;;;;;5094305;28;20051;-73
2022/06/14 06:18:41;;;;;;;6.85;2.45;;;16.20;99.90;;;;;;5094431;28;20044;-73
2022/06/14 06:21:13;;;;;;;15.68;3.03;;;16.50;99.90;;;;;;5095354;28;20111;-74
2022/06/14 06:23:47;;;;;;;5.68;2.22;;;16.70;99.90;;;;;;5094271;28;20089;-74
2022/06/14 06:26:15;;;;;;;5.63;1.90;;;17.00;99.90;;;;;;5094218;28;20048;-74
2022/06/14 06:28:46;;;;;;;9.35;2.38;;;17.10;99.90;;;;;;5095440;28;20056;-74
2022/06/14 06:31:24;;;;;;;13.38;2.88;;;17.40;99.90;;;;;;5093997;28;20047;-74
2022/06/14 06:33:53;;;;;;;6.88;2.03;;;17.60;99.90;;;;;;5095472;28;20488;-74
2022/06/14 06:36:47;;;;;;;7.45;1.63;;;17.70;99.90;;;;;;5094153;28;20040;-74
2022/06/14 06:39:51;;;;;;;7.93;1.88;;;18.00;99.90;;;;;;5095357;28;20124;-74
2022/06/14 06:42:35;;;;;;;6.05;1.75;;;18.10;99.90;;;;;;5093644;28;20048;-74
2022/06/14 06:45:07;;;;;;;8.60;2.17;;;18.30;99.90;;;;;;5095186;28;20043;-74
2022/06/14 06:47:48;;;;;;;8.93;2.33;;;18.40;99.90;;;;;;5093896;28;20040;-74
2022/06/14 06:50:25;;;;;;;5.90;1.60;;;18.60;99.90;;;;;;5093534;28;20044;-75
2022/06/14 06:53:01;;;;;;;8.90;2.00;;;18.80;99.90;;;;;;5093750;28;20082;-76
2022/06/14 06:55:57;;;;;;;9.32;2.35;;;18.80;99.90;;;;;;5094891;28;20051;-74
2022/06/14 06:58:26;;;;;;;6.32;1.48;;;19.00;98.60;;;;;;5093794;28;20036;-74
2022/06/14 07:00:58;;;;;;;5.78;1.55;;;19.40;98.90;;;;;;5093395;28;20044;-75
2022/06/14 07:03:26;;;;;;;10.82;1.90;;;19.30;98.40;;;;;;5094689;28;20112;-74
2022/06/14 07:05:58;;;;;;;9.20;2.38;;;19.40;97.30;;;;;;5093406;28;20130;-75
2022/06/14 07:08:48;;;;;;;9.38;2.00;;;19.00;96.80;;;;;;5093201;28;20166;-74
2022/06/14 07:11:18;;;;;;;4.40;1.60;;;19.30;97.00;;;;;;5093149;28;20036;-75
2022/06/14 07:14:00;;;;;;;4.13;1.10;;;19.40;96.40;;;;;;5093358;28;20515;-75
2022/06/14 07:16:44;;;;;;;7.18;2.00;;;19.40;95.40;;;;;;5094593;28;20401;-75
2022/06/14 07:19:33;;;;;;;5.95;1.40;;;19.50;94.80;;;;;;5093400;28;20119;-75
2022/06/14 07:22:14;;;;;;;9.45;1.88;;;19.20;95.10;;;;;;5092843;28;20052;-75
2022/06/14 07:25:07;;;;;;;9.55;2.40;;;19.00;95.10;;;;;;5093069;28;20044;-74
2022/06/14 07:27:46;;;;;;;7.68;1.80;;;19.10;95.50;;;;;;5094469;28;20052;-74
2022/06/14 07:30:15;;;;;;;5.20;2.20;;;19.30;94.90;;;;;;5094107;28;20076;-75
2022/06/14 07:32:47;;;;;;;11.50;2.08;;;19.40;95.30;;;;;;5092952;28;20044;-75
2022/06/14 07:35:23;;;;;;;4.38;1.85;;;19.50;94.50;;;;;;5093102;28;20445;-74
2022/06/14 07:37:58;;;;;;;9.15;2.30;;;19.70;94.20;;;;;;5094251;28;20044;-75
2022/06/14 07:41:02;;;;;;;3.35;1.45;;;19.70;93.90;;;;;;5092659;28;20032;-75
2022/06/14 07:44:01;;;;;;;5.13;1.55;;;19.70;92.30;;;;;;5092761;28;20036;-76
2022/06/14 07:46:54;;;;;;;7.78;1.60;;;19.70;92.90;;;;;;5092732;28;20036;-75
2022/06/14 07:49:34;;;;;;;8.00;2.05;;;19.60;93.40;;;;;;5094006;28;20046;-76
2022/06/14 07:52:14;;;;;;;7.20;1.70;;;19.70;91.20;;;;;;5090988;28;20050;-77
2022/06/14 07:54:45;;;;;;;6.38;2.00;;;19.90;90.90;;;;;;5087357;28;20040;-75
2022/06/14 07:57:31;;;;;;;4.80;1.75;;;20.10;90.00;;;;;;5093808;28;20036;-75
2022/06/14 08:02:53;;;;;;;7.05;1.40;;;20.60;90.10;;;;;;5093513;28;20040;-75
2022/06/14 08:05:25;;;;;;;7.00;1.50;;;20.80;88.50;;;;;;5092361;28;20107;-74
2022/06/14 08:07:53;;;;;;;7.55;2.15;;;20.70;86.50;;;;;;5092515;28;20506;-75
2022/06/14 08:10:29;;;;;;;5.30;1.35;;;20.90;83.90;;;;;;5091983;28;20047;-76
2022/06/14 08:13:05;;;;;;;4.57;1.17;;;20.50;82.30;;;;;;5092437;28;20040;-75
2022/06/14 08:15:36;;;;;;;5.93;1.55;;;20.00;83.10;;;;;;5093423;28;20096;-74
2022/06/14 08:18:10;;;;;;;4.60;1.45;;;19.60;84.20;;;;;;5092266;28;20039;-75
2022/06/14 08:20:56;;;;;;;4.28;1.40;;;19.10;84.90;;;;;;5091155;28;20044;-74
2022/06/14 08:23:34;;;;;;;5.10;1.55;;;19.40;86.30;;;;;;5092342;28;20071;-75
2022/06/14 08:26:20;;;;;;;2.92;1.50;;;19.70;86.10;;;;;;5083833;28;20032;-74
2022/06/14 08:29:05;;;;;;;3.65;1.15;;;20.10;83.80;;;;;;5081192;28;20044;-75
2022/06/14 08:31:37;;;;;;;5.72;1.63;;;20.70;82.50;;;;;;5082854;28;20047;-74
2022/06/14 08:34:15;;;;;;;6.20;1.50;;;20.80;82.70;;;;;;5085271;28;20063;-74
2022/06/14 08:37:07;;;;;;;3.42;1.48;;;20.80;82.10;;;;;;5085720;28;20493;-76
2022/06/14 08:39:39;;;;;;;4.22;1.50;;;20.70;80.70;;;;;;5086296;28;20044;-77
2022/06/14 08:42:14;;;;;;;3.10;1.27;;;20.30;80.00;;;;;;5112275;28;20042;-75
2022/06/14 08:44:52;;;;;;;5.45;1.55;;;20.20;80.10;;;;;;5112222;28;20031;-76
2022/06/14 08:47:36;;;;;;;5.43;1.77;;;20.10;79.00;;;;;;5112352;28;20079;-76
2022/06/14 08:50:08;;;;;;;6.20;1.33;;;20.60;80.60;;;;;;5111586;28;20047;-76
2022/06/14 08:53:04;;;;;;;4.15;1.20;;;20.90;78.60;;;;;;5113260;27;20043;-75
2022/06/14 08:55:57;;;;;;;6.30;1.95;;;20.90;77.30;;;;;;5113258;28;20048;-74
2022/06/14 08:59:01;;;;;;;6.45;1.33;;;21.40;75.20;;;;;;5112979;28;20097;-74
2022/06/14 09:01:52;;;;;;;2.92;1.30;;;21.10;76.70;;;;;;5111269;28;20040;-72
2022/06/14 09:04:46;;;;;;;4.10;1.15;;;20.60;79.50;;;;;;5113083;28;20088;-76
2022/06/14 09:07:26;;;;;;;3.33;0.85;;;20.10;75.80;;;;;;5111583;28;20043;-76
2022/06/14 09:10:15;;;;;;;3.80;1.38;;;19.70;81.10;;;;;;5112590;28;20046;-79
2022/06/14 09:13:15;;;;;;;3.50;1.00;;;19.70;77.50;;;;;;5111509;28;20048;-76
2022/06/14 09:16:06;;;;;;;5.18;1.40;;;19.70;79.50;;;;;;5113786;28;20552;-75
2022/06/14 09:18:34;;;;;;;2.83;1.00;;;19.90;83.90;;;;;;5114821;28;20039;-75
2022/06/14 09:21:32;;;;;;;3.58;0.85;;;20.30;80.60;;;;;;5113922;28;20118;-75
2022/06/14 09:24:16;;;;;;;4.50;1.00;;;20.50;78.20;;;;;;5112634;28;20036;-76
2022/06/14 09:26:54;;;;;;;3.00;1.10;;;20.80;76.50;;;;;;5112186;28;20043;-74
2022/06/14 09:29:46;;;;;;;6.72;1.30;;;21.40;74.00;;;;;;5113948;28;20048;-76
2022/06/14 09:32:31;;;;;;;5.30;1.80;;;21.40;73.20;;;;;;5113086;28;20697;-76
2022/06/14 09:35:11;;;;;;;3.33;1.30;;;21.30;71.00;;;;;;5094615;28;20043;-75
2022/06/14 09:37:56;;;;;;;8.48;1.70;;;21.00;74.00;;;;;;5111431;28;20039;-76
2022/06/14 09:40:54;;;;;;;3.08;1.02;;;20.50;74.30;;;;;;5111453;28;20039;-75
2022/06/14 09:43:36;;;;;;;4.45;0.90;;;20.10;76.30;;;;;;5112299;28;20044;-75
2022/06/14 09:46:20;;;;;;;3.03;0.90;;;20.00;79.60;;;;;;5111296;28;20104;-75
2022/06/14 09:49:18;;;;;;;3.70;1.30;;;19.60;77.10;;;;;;5111004;28;20135;-74
2022/06/14 09:52:20;;;;;;;2.35;1.30;;;19.90;76.60;;;;;;5114884;28;20393;-76
2022/06/14 09:55:04;;;;;;;4.63;1.60;;;20.50;80.00;;;;;;5106727;28;20055;-74
2022/06/14 09:58:03;;;;;;;2.85;1.15;;;20.30;75.80;;;;;;5094288;28;20501;-74
2022/06/14 10:00:52;;;;;;;3.95;1.20;;;20.10;75.80;;;;;;5113096;28;20050;-74
2022/06/14 10:03:37;;;;;;;2.58;0.90;;;20.00;79.00;;;;;;5110980;28;20095;-74
2022/06/14 10:06:24;;;;;;;2.72;1.00;;;20.10;78.10;;;;;;5112309;28;20036;-74
2022/06/14 10:09:14;;;;;;;2.42;0.82;;;19.60;74.60;;;;;;5102135;28;20036;-74
2022/06/14 10:12:06;;;;;;;4.25;1.40;;;19.70;77.50;;;;;;5071380;28;20048;-74
2022/06/14 10:14:44;;;;;;;3.33;1.00;;;19.70;79.40;;;;;;5065460;28;20401;-73
2022/06/14 10:17:31;;;;;;;2.30;0.80;;;19.70;80.30;;;;;;5071277;28;20149;-74
2022/06/14 10:20:34;;;;;;;3.38;1.10;;;19.70;76.90;;;;;;5075951;28;20032;-74
2022/06/14 10:23:26;;;;;;;2.67;0.70;;;19.60;80.00;;;;;;5087390;28;20028;-73
2022/06/14 10:29:18;;;;;;;2.22;1.02;;;19.40;79.60;;;;;;5090268;28;20051;-73
2022/06/14 10:32:05;;;;;;;4.13;1.25;;;19.20;79.40;;;;;;5089884;28;20040;-72
2022/06/14 10:34:51;;;;;;;4.63;1.30;;;19.20;79.10;;;;;;5090424;28;20051;-71
2022/06/14 10:37:52;;;;;;;4.43;1.13;;;19.30;82.40;;;;;;5090155;28;20041;-71
2022/06/14 10:40:26;;;;;;;2.88;0.90;;;19.10;83.80;;;;;;5090103;28;20036;-71
2022/06/14 10:43:07;;;;;;;2.90;1.00;;;19.00;88.10;;;;;;5090646;28;20028;-71
2022/06/14 10:45:54;;;;;;;3.00;1.08;;;19.10;88.90;;;;;;5094043;28;20493;-71
2022/06/14 10:48:28;;;;;;;4.65;1.30;;;19.00;86.70;;;;;;5095186;28;20036;-71
2022/06/14 10:51:27;;;;;;;2.97;1.10;;;19.00;90.10;;;;;;5094626;28;20036;-71
2022/06/14 10:54:17;;;;;;;6.57;1.55;;;19.10;89.20;;;;;;5095057;28;20047;-71
2022/06/14 10:57:08;;;;;;;2.05;0.93;;;19.20;87.40;;;;;;5093610;28;20132;-71
2022/06/14 10:59:59;;;;;;;2.72;1.27;;;19.30;89.90;;;;;;5094958;28;20447;-71
2022/06/14 11:02:36;;;;;;;2.40;0.80;;;19.20;88.80;;;;;;5093631;28;20516;-71
2022/06/14 11:05:20;;;;;;;4.03;1.30;;;19.00;90.70;;;;;;5094788;28;20035;-71
2022/06/14 11:08:04;;;;;;;2.58;1.20;;;18.80;92.40;;;;;;5093736;28;20114;-71
2022/06/14 11:10:29;;;;;;;1.90;0.95;;;18.70;92.10;;;;;;5093466;28;20036;-71
2022/06/14 11:13:13;;;;;;;3.45;1.05;;;18.60;92.30;;;;;;5094537;28;20032;-71
2022/06/14 11:15:56;;;;;;;5.13;1.20;;;18.60;92.50;;;;;;5093131;28;20174;-71
2022/06/14 11:18:44;;;;;;;3.90;1.38;;;18.60;91.60;;;;;;5094591;28;20498;-71
2022/06/14 11:21:38;;;;;;;3.40;1.15;;;18.70;92.20;;;;;;5094226;28;20051;-71
2022/06/14 11:24:14;;;;;;;4.60;1.30;;;18.70;92.20;;;;;;5093338;28;20040;-71
2022/06/14 11:26:56;;;;;;;3.75;1.27;;;18.70;92.00;;;;;;5092898;28;20127;-71
2022/06/14 11:29:53;;;;;;;6.43;1.58;;;18.70;90.50;;;;;;5093000;28;20044;-71
2022/06/14 11:32:50;;;;;;;2.95;1.05;;;18.70;90.50;;;;;;5094011;28;20044;-72
2022/06/14 11:35:43;;;;;;;4.20;1.48;;;18.70;91.70;;;;;;5093085;28;20363;-71
2022/06/14 11:38:30;;;;;;;3.22;1.10;;;18.70;90.90;;;;;;5094164;28;20195;-71
2022/06/14 11:41:05;;;;;;;4.03;1.60;;;18.80;92.00;;;;;;5093732;28;20036;-71
2022/06/14 11:44:11;;;;;;;1.90;1.08;;;18.90;92.40;;;;;;5093041;28;20119;-70
2022/06/14 11:46:46;;;;;;;3.75;1.23;;;18.80;91.50;;;;;;5062629;28;20059;-71
2022/06/14 11:49:38;;;;;;;3.75;1.65;;;18.70;92.50;;;;;;5092604;28;20559;-71
2022/06/14 11:52:22;;;;;;;5.63;1.50;;;18.80;92.60;;;;;;5092339;28;20052;-71
2022/06/14 11:55:01;;;;;;;3.15;1.20;;;18.70;93.20;;;;;;5091447;28;20047;-71
2022/06/14 11:57:41;;;;;;;3.58;1.00;;;18.60;90.90;;;;;;5092371;28;20044;-71
2022/06/14 12:00:10;;;;;;;3.08;1.10;;;18.70;91.50;;;;;;5093569;28;20089;-71
2022/06/14 12:02:41;;;;;;;2.53;1.08;;;18.70;91.40;;;;;;5093583;28;20068;-71
2022/06/14 12:05:32;;;;;;;3.80;1.15;;;18.70;92.40;;;;;;5092418;28;20453;-71
2022/06/14 12:08:20;;;;;;;2.63;1.15;;;18.60;91.20;;;;;;5093509;28;20044;-71
2022/06/14 12:10:55;;;;;;;3.40;1.30;;;18.70;90.90;;;;;;5092144;28;20378;-71
2022/06/14 12:13:59;;;;;;;5.95;2.00;;;18.80;89.50;;;;;;5093456;28;20366;-71
2022/06/14 12:16:39;;;;;;;3.47;1.88;;;18.50;90.40;;;;;;5092049;28;20040;-71
2022/06/14 12:19:11;;;;;;;7.38;2.83;;;18.60;92.20;;;;;;5093341;28;20077;-71
2022/06/14 12:22:00;;;;;;;3.80;1.55;;;18.70;91.10;;;;;;5093034;28;20044;-71
2022/06/14 12:27:18;;;;;;;4.22;1.73;;;18.80;90.10;;;;;;5093347;28;20040;-71
2022/06/14 12:29:50;;;;;;;5.28;1.67;;;19.00;89.70;;;;;;5092062;28;20040;-71
2022/06/14 12:32:40;;;;;;;6.25;2.25;;;19.00;88.50;;;;;;5092836;28;20058;-71
2022/06/14 12:35:16;;;;;;;4.70;1.85;;;19.10;87.30;;;;;;5091761;28;20040;-71
2022/06/14 12:38:02;;;;;;;7.03;1.80;;;19.20;85.90;;;;;;5091830;28;20044;-71
2022/06/14 12:41:06;;;;;;;3.60;1.30;;;19.20;86.00;;;;;;5091439;28;20032;-71
2022/06/14 12:43:47;;;;;;;3.15;1.45;;;19.30;85.40;;;;;;5092853;28;20110;-71
2022/06/14 12:46:18;;;;;;;4.28;1.50;;;19.40;84.50;;;;;;5093112;28;20087;-72
2022/06/14 12:49:13;;;;;;;6.35;2.13;;;19.60;83.90;;;;;;5091849;28;20044;-71
2022/06/14 12:51:47;;;;;;;3.42;1.60;;;19.60;85.30;;;;;;5092346;28;20448;-72
2022/06/14 12:54:33;;;;;;;6.80;2.03;;;19.80;86.00;;;;;;5091603;28;20046;-71
2022/06/14 12:57:13;;;;;;;5.70;2.13;;;19.80;86.40;;;;;;5091446;28;20448;-71
2022/06/14 13:00:04;;;;;;;4.57;1.40;;;19.80;85.00;;;;;;5091314;28;20089;-72
2022/06/14 13:02:47;;;;;;;5.40;1.83;;;19.90;82.80;;;;;;5090886;28;20513;-71
2022/06/14 13:05:21;;;;;;;6.13;1.63;;;19.90;83.30;;;;;;5092706;28;20161;-71
2022/06/14 13:08:00;;;;;;;3.30;1.58;;;19.90;86.10;;;;;;5092110;28;20043;-71
2022/06/14 13:10:48;;;;;;;4.40;1.60;;;20.00;87.60;;;;;;5090813;28;20425;-71
2022/06/14 13:13:46;;;;;;;5.55;1.90;;;19.90;89.50;;;;;;5092442;28;20044;-71
2022/06/14 13:16:36;;;;;;;3.65;1.50;;;19.90;90.70;;;;;;5091103;28;20050;-71
2022/06/14 13:19:40;;;;;;;3.40;1.67;;;20.00;92.30;;;;;;5091334;28;20040;-71
2022/06/14 13:22:33;;;;;;;4.88;1.83;;;20.10;90.40;;;;;;5092047;28;20040;-71
2022/06/14 13:25:28;;;;;;;5.33;2.10;;;20.10;90.20;;;;;;5090835;28;20040;-71
2022/06/14 13:28:30;;;;;;;2.72;1.83;;;20.20;89.50;;;;;;5092165;28;20044;-71
2022/06/14 13:31:42;;;;;;;4.47;1.90;;;20.20;89.40;;;;;;5086231;28;20055;-71
2022/06/14 13:34:34;;;;;;;3.47;1.90;;;20.20;90.00;;;;;;4993317;28;20073;-72
2022/06/14 13:37:21;;;;;;;3.33;1.50;;;20.10;92.60;;;;;;5006870;28;20086;-71
2022/06/14 13:39:56;;;;;;;3.97;1.55;;;20.10;90.70;;;;;;5069294;28;20048;-71
2022/06/14 13:42:36;;;;;;;3.13;1.08;;;20.10;87.20;;;;;;5090501;28;20040;-71
2022/06/14 13:45:30;;;;;;;4.35;1.35;;;20.10;87.60;;;;;;5091912;28;20032;-68
2022/06/14 13:48:21;;;;;;;2.72;1.30;;;20.30;88.00;;;;;;5092168;28;20574;-69
2022/06/14 13:51:12;;;;;;;3.42;1.30;;;20.70;81.50;;;;;;5091664;28;20173;-69
2022/06/14 13:53:46;;;;;;;3.90;1.08;;;21.00;85.80;;;;;;5091925;28;20043;-69
2022/06/14 13:56:19;;;;;;;2.25;1.15;;;21.30;88.00;;;;;;5090468;28;20506;-69
2022/06/14 13:58:49;;;;;;;;;;;21.40;84.90;;;;;;5092437;28;20032;-69
2022/06/14 14:01:41;;;;;;;4.25;1.40;;;21.10;82.60;;;;;;5091484;28;19916;-69
2022/06/14 14:04:12;;;;;;;2.92;1.25;;;21.20;80.90;;;;;;5087994;28;20048;-71
2022/06/14 14:06:44;;;;;;;6.25;1.40;;;21.30;78.90;;;;;;5079569;28;20044;-71